createdAt,value
2017-11-22T00:01:39.336Z,2.28
2017-11-22T00:04:05.752Z,1.70
2017-11-22T00:06:32.124Z,1.73
2017-11-22T00:08:58.480Z,1.52
2017-11-22T00:11:24.848Z,2.08
2017-11-22T00:13:51.197Z,1.37
2017-11-22T00:16:17.548Z,2.05
2017-11-22T00:18:43.937Z,1.55
2017-11-22T00:21:11.297Z,1.60
2017-11-22T00:23:38.725Z,1.48
2017-11-22T00:26:05.866Z,1.80
2017-11-22T00:28:32.242Z,1.50
2017-11-22T00:30:58.611Z,1.30
2017-11-22T00:33:24.995Z,1.45
2017-11-22T00:35:51.363Z,1.30
2017-11-22T00:38:17.747Z,2.17
2017-11-22T00:40:44.839Z,1.05
2017-11-22T00:43:11.179Z,1.37
2017-11-22T00:45:37.537Z,1.80
2017-11-22T00:48:03.930Z,1.12
2017-11-22T00:50:30.292Z,1.87
2017-11-22T00:52:56.667Z,1.60
2017-11-22T00:55:23.051Z,1.40
2017-11-22T00:57:49.484Z,2.30
2017-11-22T01:00:15.844Z,1.20
2017-11-22T01:02:42.205Z,1.85
2017-11-22T01:05:08.564Z,1.58
2017-11-22T01:07:35.952Z,1.37
2017-11-22T01:10:02.342Z,1.20
2017-11-22T01:12:28.740Z,2.47
2017-11-22T01:14:55.838Z,2.47
2017-11-22T01:17:22.200Z,1.75
2017-11-22T01:19:48.605Z,1.17
2017-11-22T01:22:14.961Z,1.45
2017-11-22T01:24:41.318Z,1.30
2017-11-22T01:27:08.415Z,1.20
2017-11-22T01:29:34.737Z,1.48
2017-11-22T01:32:01.107Z,1.65
2017-11-22T01:34:27.521Z,1.83
2017-11-22T01:36:54.961Z,1.30
2017-11-22T01:39:21.300Z,1.50
2017-11-22T01:41:47.823Z,1.20
2017-11-22T01:44:14.180Z,1.15
2017-11-22T01:46:40.572Z,1.45
2017-11-22T01:49:06.988Z,1.55
2017-11-22T01:51:33.368Z,1.37
2017-11-22T01:53:59.742Z,2.28
2017-11-22T01:56:26.077Z,1.33
2017-11-22T01:58:52.475Z,1.45
2017-11-22T02:01:18.831Z,1.55
2017-11-22T02:03:45.202Z,1.37
2017-11-22T02:06:11.585Z,1.30
2017-11-22T02:08:38.058Z,1.15
2017-11-22T02:11:05.210Z,2.08
2017-11-22T02:13:33.316Z,1.48
2017-11-22T02:15:59.709Z,1.52
2017-11-22T02:18:26.828Z,1.35
2017-11-22T02:20:53.224Z,1.40
2017-11-22T02:23:19.596Z,1.65
2017-11-22T02:25:45.940Z,1.77
2017-11-22T02:28:12.329Z,1.40
2017-11-22T02:30:38.703Z,1.58
2017-11-22T02:33:05.206Z,1.23
2017-11-22T02:35:31.612Z,1.73
2017-11-22T02:37:58.045Z,1.60
2017-11-22T02:40:24.402Z,1.45
2017-11-22T02:42:50.829Z,1.62
2017-11-22T02:45:17.202Z,1.37
2017-11-22T02:47:43.583Z,1.15
2017-11-22T02:50:09.950Z,1.80
2017-11-22T02:52:36.338Z,1.48
2017-11-22T02:55:02.791Z,1.55
2017-11-22T02:57:29.173Z,1.10
2017-11-22T02:59:55.590Z,1.40
2017-11-22T03:02:21.996Z,1.50
2017-11-22T03:04:48.441Z,1.65
2017-11-22T03:07:14.836Z,1.58
2017-11-22T03:09:42.943Z,1.25
2017-11-22T03:12:09.309Z,1.55
2017-11-22T03:14:35.678Z,1.98
2017-11-22T03:17:02.034Z,1.95
2017-11-22T03:19:28.388Z,1.65
2017-11-22T03:21:54.771Z,2.17
2017-11-22T03:24:23.065Z,2.47
2017-11-22T03:26:49.416Z,1.98
2017-11-22T03:29:15.765Z,1.50
2017-11-22T03:31:42.129Z,1.87
2017-11-22T03:34:09.233Z,2.00
2017-11-22T03:36:35.617Z,1.87
2017-11-22T03:39:02.788Z,1.98
2017-11-22T03:41:29.152Z,1.65
2017-11-22T03:43:55.521Z,1.80
2017-11-22T03:46:21.947Z,3.05
2017-11-22T03:48:58.281Z,2.72
2017-11-22T03:51:30.580Z,2.05
2017-11-22T03:53:56.964Z,1.87
2017-11-22T03:56:23.344Z,2.47
2017-11-22T03:58:49.716Z,1.55
2017-11-22T04:01:16.819Z,1.85
2017-11-22T04:03:43.169Z,2.15
2017-11-22T04:06:14.449Z,1.67
2017-11-22T04:08:40.828Z,2.22
2017-11-22T04:11:07.161Z,1.87
2017-11-22T04:13:33.512Z,1.67
2017-11-22T04:15:59.873Z,1.60
2017-11-22T04:18:26.977Z,2.37
2017-11-22T04:20:56.115Z,2.00
2017-11-22T04:23:23.217Z,1.52
2017-11-22T04:25:51.129Z,1.70
2017-11-22T04:28:18.236Z,1.73
2017-11-22T04:30:44.556Z,1.60
2017-11-22T04:33:10.916Z,1.33
2017-11-22T04:35:37.276Z,1.40
2017-11-22T04:38:06.228Z,1.65
2017-11-22T04:40:33.347Z,1.52
2017-11-22T04:42:59.740Z,1.50
2017-11-22T04:45:26.856Z,2.28
2017-11-22T04:47:53.256Z,1.95
2017-11-22T04:50:19.641Z,1.80
2017-11-22T04:52:45.998Z,1.62
2017-11-22T04:55:13.100Z,1.48
2017-11-22T04:57:39.607Z,1.50
2017-11-22T05:00:06.007Z,1.25
2017-11-22T05:02:33.101Z,1.95
2017-11-22T05:05:00.480Z,1.30
2017-11-22T05:07:26.844Z,1.20
2017-11-22T05:09:54.204Z,1.55
2017-11-22T05:12:21.349Z,1.30
2017-11-22T05:14:47.768Z,0.90
2017-11-22T05:17:14.104Z,1.60
2017-11-22T05:19:40.754Z,1.40
2017-11-22T05:22:07.845Z,1.50
2017-11-22T05:24:34.236Z,1.00
2017-11-22T05:27:00.633Z,1.30
2017-11-22T05:29:27.004Z,1.55
2017-11-22T05:31:53.351Z,1.42
2017-11-22T05:34:21.460Z,1.30
2017-11-22T05:36:47.966Z,1.42
2017-11-22T05:39:15.157Z,1.30
2017-11-22T05:41:41.553Z,1.37
2017-11-22T05:44:07.997Z,1.35
2017-11-22T05:46:34.374Z,1.27
2017-11-22T05:49:00.712Z,1.20
2017-11-22T05:51:27.051Z,1.33
2017-11-22T05:53:53.481Z,1.20
2017-11-22T05:56:20.021Z,1.12
2017-11-22T05:58:46.399Z,1.25
2017-11-22T06:01:12.776Z,1.20
2017-11-22T06:03:40.089Z,1.20
2017-11-22T06:06:06.466Z,1.52
2017-11-22T06:08:32.842Z,1.37
2017-11-22T06:10:59.215Z,1.80
2017-11-22T06:13:25.612Z,1.58
2017-11-22T06:15:51.981Z,0.80
2017-11-22T06:18:18.440Z,1.15
2017-11-22T06:20:44.825Z,1.00
2017-11-22T06:23:11.935Z,1.62
2017-11-22T06:25:39.077Z,0.80
2017-11-22T06:28:05.502Z,1.35
2017-11-22T06:30:31.891Z,1.33
2017-11-22T06:32:58.304Z,2.20
2017-11-22T06:35:24.675Z,1.08
2017-11-22T06:37:51.032Z,1.33
2017-11-22T06:40:18.443Z,1.65
2017-11-22T06:42:44.811Z,1.60
2017-11-22T06:45:11.483Z,1.40
2017-11-22T06:47:38.552Z,1.52
2017-11-22T06:50:04.955Z,1.10
2017-11-22T06:52:31.284Z,1.12
2017-11-22T06:54:57.655Z,1.15
2017-11-22T06:57:24.024Z,1.33
2017-11-22T06:59:50.378Z,1.42
2017-11-22T07:02:19.757Z,1.23
2017-11-22T07:04:46.151Z,1.12
2017-11-22T07:07:12.508Z,1.25
2017-11-22T07:09:38.888Z,1.80
2017-11-22T07:12:06.052Z,1.30
2017-11-22T07:14:33.150Z,1.60
2017-11-22T07:17:05.624Z,1.23
2017-11-22T07:19:31.996Z,1.65
2017-11-22T07:21:59.097Z,1.40
2017-11-22T07:24:25.487Z,1.60
2017-11-22T07:26:52.549Z,1.10
2017-11-22T07:29:18.895Z,1.20
2017-11-22T07:31:45.303Z,1.65
2017-11-22T07:34:12.421Z,1.17
2017-11-22T07:36:44.738Z,1.08
2017-11-22T07:39:11.105Z,1.17
2017-11-22T07:41:37.466Z,1.08
2017-11-22T07:44:03.813Z,1.55
2017-11-22T07:46:30.893Z,1.40
2017-11-22T07:48:57.220Z,1.27
2017-11-22T07:51:29.748Z,1.20
2017-11-22T07:53:56.120Z,1.20
2017-11-22T07:56:22.480Z,1.20
2017-11-22T07:58:48.810Z,0.93
2017-11-22T08:01:15.269Z,1.40
2017-11-22T08:03:47.590Z,0.80
2017-11-22T08:06:15.095Z,1.40
2017-11-22T08:08:41.466Z,1.45
2017-11-22T08:11:09.572Z,1.30
2017-11-22T08:13:35.913Z,1.35
2017-11-22T08:16:02.276Z,1.25
2017-11-22T08:18:28.606Z,1.30
2017-11-22T08:20:55.904Z,1.33
2017-11-22T08:23:23.936Z,1.37
2017-11-22T08:25:50.290Z,1.40
2017-11-22T08:28:17.359Z,1.60
2017-11-22T08:30:43.700Z,1.40
2017-11-22T08:33:10.071Z,1.27
2017-11-22T08:35:36.395Z,1.70
2017-11-22T08:38:02.776Z,1.45
2017-11-22T08:40:29.847Z,1.15
2017-11-22T08:43:02.275Z,1.67
2017-11-22T08:45:28.672Z,1.60
2017-11-22T08:47:55.009Z,1.40
2017-11-22T08:50:21.384Z,1.40
2017-11-22T08:52:47.817Z,1.25
2017-11-22T08:55:16.752Z,1.30
2017-11-22T08:57:49.156Z,1.52
2017-11-22T09:00:18.420Z,1.20
2017-11-22T09:02:44.796Z,1.20
2017-11-22T09:05:11.177Z,1.50
2017-11-22T09:07:37.515Z,1.40
2017-11-22T09:10:03.851Z,1.07
2017-11-22T09:12:36.401Z,1.33
2017-11-22T09:15:03.705Z,1.15
2017-11-22T09:17:31.050Z,1.20
2017-11-22T09:19:57.429Z,1.10
2017-11-22T09:22:23.789Z,1.67
2017-11-22T09:24:53.024Z,1.17
2017-11-22T09:27:25.579Z,1.20
2017-11-22T09:29:55.869Z,1.40
2017-11-22T09:32:29.066Z,1.20
2017-11-22T09:35:03.466Z,1.35
2017-11-22T09:37:29.839Z,1.75
2017-11-22T09:39:56.177Z,1.03
2017-11-22T09:42:22.541Z,0.93
2017-11-22T09:44:48.957Z,1.20
2017-11-22T09:47:15.302Z,1.20
2017-11-22T09:49:41.612Z,1.17
2017-11-22T09:52:07.973Z,0.97
2017-11-22T09:54:34.315Z,1.10
2017-11-22T09:57:00.665Z,0.90
2017-11-22T09:59:27.064Z,0.80
2017-11-22T10:01:53.433Z,1.10
2017-11-22T10:04:19.754Z,1.07
2017-11-22T10:06:46.160Z,1.00
2017-11-22T10:09:12.505Z,0.90
2017-11-22T10:11:39.862Z,1.20
2017-11-22T10:14:06.234Z,1.03
2017-11-22T10:16:34.152Z,1.07
2017-11-22T10:19:00.508Z,1.30
2017-11-22T10:21:26.877Z,0.90
2017-11-22T10:23:53.260Z,0.80
2017-11-22T10:26:25.704Z,0.90
2017-11-22T10:28:52.129Z,0.83
2017-11-22T10:31:24.479Z,1.20
2017-11-22T10:33:51.624Z,0.70
2017-11-22T10:36:18.748Z,0.93
2017-11-22T10:38:45.128Z,1.10
2017-11-22T10:41:11.528Z,0.90
2017-11-22T10:43:37.889Z,0.80
2017-11-22T10:46:04.291Z,1.20
2017-11-22T10:48:30.684Z,1.03
2017-11-22T10:50:57.067Z,0.73
2017-11-22T10:53:24.385Z,1.00
2017-11-22T10:55:50.793Z,0.90
2017-11-22T10:58:17.194Z,0.90
2017-11-22T11:00:44.293Z,0.80
2017-11-22T11:03:10.699Z,0.80
2017-11-22T11:05:37.036Z,0.87
2017-11-22T11:08:03.421Z,0.80
2017-11-22T11:10:29.802Z,0.73
2017-11-22T11:12:56.186Z,0.77
2017-11-22T11:15:22.530Z,1.00
2017-11-22T11:17:48.884Z,0.57
2017-11-22T11:20:15.272Z,1.37
2017-11-22T11:22:41.683Z,0.90
2017-11-22T11:25:08.677Z,0.87
2017-11-22T11:27:35.042Z,0.70
2017-11-22T11:30:01.409Z,1.10
2017-11-22T11:32:27.763Z,0.67
2017-11-22T11:34:54.097Z,1.07
2017-11-22T11:37:20.478Z,0.60
2017-11-22T11:39:46.869Z,0.70
2017-11-22T11:42:14.012Z,0.83
2017-11-22T11:44:40.404Z,0.70
2017-11-22T11:47:07.121Z,0.70
2017-11-22T11:49:33.492Z,0.70
2017-11-22T11:51:59.855Z,0.80
2017-11-22T11:54:26.969Z,0.80
2017-11-22T11:56:53.329Z,0.50
2017-11-22T11:59:19.701Z,0.60
2017-11-22T12:01:46.124Z,0.70
2017-11-22T12:04:13.192Z,0.60
2017-11-22T12:06:39.563Z,0.70
2017-11-22T12:09:05.940Z,0.50
2017-11-22T12:11:33.021Z,0.87
2017-11-22T12:13:59.367Z,0.77
2017-11-22T12:16:25.701Z,0.90
2017-11-22T12:18:52.043Z,0.93
2017-11-22T12:21:24.530Z,0.73
2017-11-22T12:23:50.904Z,0.70
2017-11-22T12:26:18.270Z,0.90
2017-11-22T12:28:44.624Z,0.67
2017-11-22T12:31:10.964Z,0.90
2017-11-22T12:33:37.335Z,0.70
2017-11-22T12:36:04.416Z,1.07
2017-11-22T12:38:31.551Z,0.70
2017-11-22T12:40:57.891Z,0.90
2017-11-22T12:43:24.265Z,0.77
2017-11-22T12:45:50.603Z,0.77
2017-11-22T12:48:16.956Z,1.00
2017-11-22T12:50:43.286Z,0.80
2017-11-22T12:53:10.400Z,0.80
2017-11-22T12:55:36.763Z,0.87
2017-11-22T12:58:03.099Z,1.20
2017-11-22T13:00:29.471Z,0.87
2017-11-22T13:02:56.858Z,0.80
2017-11-22T13:05:23.216Z,2.20
2017-11-22T13:07:49.660Z,4.47
2017-11-22T13:10:18.671Z,0.70
2017-11-22T13:12:45.792Z,2.03
2017-11-22T13:15:12.148Z,1.10
2017-11-22T13:17:41.133Z,1.00
2017-11-22T13:20:08.271Z,1.23
2017-11-22T13:22:34.669Z,1.67
2017-11-22T13:25:01.037Z,1.60
2017-11-22T13:27:27.373Z,0.70
2017-11-22T13:29:54.525Z,1.00
2017-11-22T13:32:20.883Z,0.60
2017-11-22T13:34:47.280Z,1.00
2017-11-22T13:37:13.652Z,1.20
2017-11-22T13:39:40.032Z,1.60
2017-11-22T13:42:06.412Z,0.80
2017-11-22T13:44:32.809Z,0.90
2017-11-22T13:46:59.213Z,1.10
2017-11-22T13:49:25.685Z,1.10
2017-11-22T13:51:52.068Z,4.07
2017-11-22T13:54:18.436Z,1.30
2017-11-22T13:56:44.827Z,0.70
2017-11-22T13:59:11.205Z,0.60
2017-11-22T14:01:37.568Z,0.60
2017-11-22T14:04:04.694Z,0.90
2017-11-22T14:06:31.073Z,1.17
2017-11-22T14:08:57.484Z,0.70
2017-11-22T14:11:24.583Z,0.90
2017-11-22T14:13:51.064Z,0.77
2017-11-22T14:16:18.176Z,0.80
2017-11-22T14:18:44.567Z,0.70
2017-11-22T14:21:10.935Z,0.70
2017-11-22T14:23:37.329Z,0.90
2017-11-22T14:26:03.698Z,0.97
2017-11-22T14:28:30.092Z,0.53
2017-11-22T14:30:56.495Z,0.70
2017-11-22T14:33:22.876Z,1.23
2017-11-22T14:35:49.239Z,0.50
2017-11-22T14:38:15.633Z,0.93
2017-11-22T14:40:41.998Z,0.70
2017-11-22T14:43:08.404Z,0.80
2017-11-22T14:45:34.785Z,0.50
2017-11-22T14:48:01.202Z,0.70
2017-11-22T14:50:28.651Z,0.93
2017-11-22T14:52:55.020Z,0.80
2017-11-22T14:55:22.151Z,0.93
2017-11-22T14:57:48.533Z,0.50
2017-11-22T15:00:14.920Z,0.67
2017-11-22T15:02:41.300Z,0.70
2017-11-22T15:05:07.686Z,0.70
2017-11-22T15:07:34.053Z,0.60
2017-11-22T15:10:00.460Z,0.60
2017-11-22T15:12:26.852Z,1.30
2017-11-22T15:14:53.540Z,0.60
2017-11-22T15:17:20.988Z,0.80
2017-11-22T15:19:47.361Z,1.10
2017-11-22T15:22:13.795Z,0.80
2017-11-22T15:24:40.916Z,0.60
2017-11-22T15:27:08.032Z,0.63
2017-11-22T15:29:34.421Z,0.73
2017-11-22T15:32:00.818Z,0.90
2017-11-22T15:34:27.200Z,0.70
2017-11-22T15:36:53.974Z,0.70
2017-11-22T15:39:20.439Z,1.20
2017-11-22T15:41:46.767Z,0.63
2017-11-22T15:44:13.359Z,0.70
2017-11-22T15:46:39.740Z,1.40
2017-11-22T15:49:07.129Z,1.07
2017-11-22T15:51:33.472Z,1.47
2017-11-22T15:53:59.848Z,1.57
2017-11-22T15:56:26.197Z,3.43
2017-11-22T15:58:53.300Z,1.70
2017-11-22T16:01:20.416Z,6.37
2017-11-22T16:03:46.784Z,2.17
2017-11-22T16:06:13.139Z,1.97
2017-11-22T16:08:39.522Z,3.60
2017-11-22T16:11:05.917Z,1.40
2017-11-22T16:13:32.295Z,1.60
2017-11-22T16:16:00.505Z,3.43
2017-11-22T16:18:26.900Z,3.00
2017-11-22T16:20:53.281Z,1.45
2017-11-22T16:23:19.641Z,1.58
2017-11-22T16:25:46.068Z,1.30
2017-11-22T16:28:13.174Z,1.17
2017-11-22T16:30:39.507Z,0.98
2017-11-22T16:33:05.915Z,1.10
2017-11-22T16:35:32.339Z,1.00
2017-11-22T16:37:58.707Z,1.10
2017-11-22T16:40:25.079Z,1.70
2017-11-22T16:42:53.180Z,1.40
2017-11-22T16:45:19.544Z,1.30
2017-11-22T16:47:45.919Z,1.10
2017-11-22T16:50:13.068Z,1.70
2017-11-22T16:52:40.152Z,1.50
2017-11-22T16:55:06.579Z,1.52
2017-11-22T16:57:32.937Z,1.70
2017-11-22T16:59:59.320Z,1.55
2017-11-22T17:02:26.433Z,1.50
2017-11-22T17:04:52.815Z,1.45
2017-11-22T17:07:22.011Z,1.70
2017-11-22T17:09:48.389Z,1.95
2017-11-22T17:12:14.756Z,1.67
2017-11-22T17:14:41.877Z,1.70
2017-11-22T17:17:08.254Z,1.60
2017-11-22T17:19:35.416Z,2.20
2017-11-22T17:22:02.539Z,1.95
2017-11-22T17:24:28.923Z,1.80
2017-11-22T17:26:55.404Z,2.12
2017-11-22T17:29:21.773Z,2.00
2017-11-22T17:31:48.288Z,2.20
2017-11-22T17:34:15.401Z,2.08
2017-11-22T17:36:41.819Z,1.75
2017-11-22T17:39:08.181Z,1.80
2017-11-22T17:41:34.540Z,1.90
2017-11-22T17:44:01.641Z,1.77
2017-11-22T17:46:28.007Z,2.20
2017-11-22T17:48:54.340Z,2.30
2017-11-22T17:51:20.703Z,2.12
2017-11-22T17:53:47.052Z,2.20
2017-11-22T17:56:13.429Z,1.80
2017-11-22T17:58:39.788Z,2.47
2017-11-22T18:01:06.911Z,8.20
2017-11-22T18:03:33.612Z,7.68
2017-11-22T18:05:59.984Z,5.40
2017-11-22T18:08:26.395Z,3.30
2017-11-22T18:10:52.815Z,2.35
2017-11-22T18:13:19.184Z,2.70
2017-11-22T18:15:45.560Z,1.85
2017-11-22T18:18:11.941Z,1.95
2017-11-22T18:20:38.357Z,2.10
2017-11-22T18:23:04.796Z,2.17
2017-11-22T18:25:31.218Z,1.62
2017-11-22T18:27:57.575Z,1.95
2017-11-22T18:30:23.963Z,2.22
2017-11-22T18:32:50.329Z,2.00
2017-11-22T18:35:16.683Z,2.35
2017-11-22T18:37:43.100Z,2.00
2017-11-22T18:40:09.521Z,1.60
2017-11-22T18:42:35.886Z,1.48
2017-11-22T18:45:02.281Z,1.55
2017-11-22T18:47:28.665Z,1.80
2017-11-22T18:49:55.800Z,2.05
2017-11-22T18:52:22.134Z,1.80
2017-11-22T18:54:48.536Z,1.75
2017-11-22T18:57:14.883Z,2.20
2017-11-22T18:59:41.220Z,1.58
2017-11-22T19:02:07.588Z,2.00
2017-11-22T19:04:34.067Z,2.35
2017-11-22T19:07:00.464Z,1.55
2017-11-22T19:09:26.818Z,1.80
2017-11-22T19:11:53.180Z,2.08
2017-11-22T19:14:19.536Z,1.73
2017-11-22T19:16:46.886Z,1.60
2017-11-22T19:19:13.240Z,2.03
2017-11-22T19:21:39.856Z,1.92
2017-11-22T19:24:07.089Z,2.12
2017-11-22T19:26:33.611Z,1.62
2017-11-22T19:29:00.304Z,1.83
2017-11-22T19:31:26.647Z,2.17
2017-11-22T19:33:57.900Z,1.75
2017-11-22T19:36:24.256Z,1.85
2017-11-22T19:38:50.593Z,2.22
2017-11-22T19:41:16.969Z,1.65
2017-11-22T19:43:44.175Z,1.40
2017-11-22T19:46:10.636Z,1.75
2017-11-22T19:48:36.962Z,2.20
2017-11-22T19:51:03.334Z,2.03
2017-11-22T19:53:30.411Z,1.80
2017-11-22T19:55:56.817Z,1.70
2017-11-22T19:58:23.877Z,1.95
2017-11-22T20:00:50.230Z,1.45
2017-11-22T20:03:17.137Z,1.87
2017-11-22T20:05:44.216Z,2.15
2017-11-22T20:08:22.764Z,1.60
2017-11-22T20:10:49.087Z,1.80
2017-11-22T20:13:15.431Z,2.37
2017-11-22T20:15:41.779Z,1.70
2017-11-22T20:18:08.148Z,2.40
2017-11-22T20:20:34.616Z,2.17
2017-11-22T20:23:02.536Z,1.90
2017-11-22T20:25:28.948Z,1.60
2017-11-22T20:27:55.274Z,1.77
2017-11-22T20:30:22.626Z,1.92
2017-11-22T20:32:48.952Z,1.87
2017-11-22T20:35:15.303Z,1.90
2017-11-22T20:37:41.640Z,1.45
2017-11-22T20:40:08.744Z,1.23
2017-11-22T20:42:35.095Z,1.70
2017-11-22T20:45:01.447Z,1.60
2017-11-22T20:47:28.142Z,1.33
2017-11-22T20:49:54.469Z,1.85
2017-11-22T20:52:20.826Z,1.65
2017-11-22T20:54:47.217Z,1.75
2017-11-22T20:57:13.592Z,1.90
2017-11-22T20:59:40.001Z,1.70
2017-11-22T21:02:06.405Z,1.83
2017-11-22T21:04:33.771Z,2.05
2017-11-22T21:07:01.152Z,1.75
2017-11-22T21:09:29.317Z,1.55
2017-11-22T21:11:55.640Z,1.60
2017-11-22T21:14:22.064Z,1.80
2017-11-22T21:16:48.656Z,1.30
2017-11-22T21:19:14.984Z,1.20
2017-11-22T21:21:41.368Z,1.60
2017-11-22T21:24:07.691Z,1.40
2017-11-22T21:26:34.768Z,1.70
2017-11-22T21:29:01.211Z,1.17
2017-11-22T21:31:27.543Z,0.90
2017-11-22T21:33:53.870Z,1.15
2017-11-22T21:36:20.362Z,3.47
2017-11-22T21:38:47.556Z,1.33
2017-11-22T21:41:13.928Z,1.55
2017-11-22T21:43:40.324Z,0.93
2017-11-22T21:46:06.676Z,1.42
2017-11-22T21:48:33.907Z,1.10
2017-11-22T21:51:00.239Z,1.10
2017-11-22T21:53:26.567Z,1.20
2017-11-22T21:55:52.932Z,1.15
2017-11-22T21:58:19.269Z,1.50
2017-11-22T22:00:45.659Z,1.20
2017-11-22T22:03:12.029Z,1.20
2017-11-22T22:05:38.354Z,0.77
2017-11-22T22:08:04.696Z,1.30
2017-11-22T22:10:31.070Z,0.80
2017-11-22T22:12:57.397Z,0.80
2017-11-22T22:15:23.740Z,1.35
2017-11-22T22:17:50.076Z,1.10
2017-11-22T22:20:16.408Z,1.10
2017-11-22T22:22:43.521Z,1.00
2017-11-22T22:25:10.610Z,1.27
2017-11-22T22:27:36.991Z,1.23
2017-11-22T22:30:03.341Z,1.70
2017-11-22T22:32:30.423Z,0.90
2017-11-22T22:34:56.769Z,1.12
2017-11-22T22:37:23.120Z,1.10
2017-11-22T22:39:49.501Z,1.30
2017-11-22T22:42:15.816Z,0.90
2017-11-22T22:44:43.343Z,1.20
2017-11-22T22:47:09.714Z,1.20
2017-11-22T22:49:37.674Z,1.33
2017-11-22T22:52:04.739Z,0.90
2017-11-22T22:54:31.876Z,1.15
2017-11-22T22:56:58.999Z,1.15
2017-11-22T22:59:26.140Z,0.80
2017-11-22T23:01:53.497Z,1.35
2017-11-22T23:04:19.836Z,1.20
2017-11-22T23:06:46.160Z,0.90
2017-11-22T23:09:12.508Z,0.98
2017-11-22T23:11:38.825Z,1.20
2017-11-22T23:14:05.192Z,1.00
2017-11-22T23:16:32.281Z,1.50
2017-11-22T23:18:58.673Z,1.40
2017-11-22T23:21:25.066Z,1.65
2017-11-22T23:23:51.418Z,1.30
2017-11-22T23:26:17.818Z,0.93
2017-11-22T23:28:44.184Z,1.00
2017-11-22T23:31:10.508Z,1.25
2017-11-22T23:33:36.903Z,1.20
2017-11-22T23:36:03.224Z,1.05
2017-11-22T23:38:29.632Z,1.12
2017-11-22T23:40:56.755Z,1.30
2017-11-22T23:43:23.100Z,1.85
2017-11-22T23:45:49.459Z,0.98
2017-11-22T23:48:16.607Z,1.00
2017-11-22T23:50:43.719Z,1.08
2017-11-22T23:53:10.063Z,0.82
2017-11-22T23:55:36.436Z,1.25
2017-11-22T23:58:02.792Z,0.80
